EW6672 Weather Reports


time (UTC)temp
F
wind
direction
speed
MPH
gust
MPH
rain 1hr
in
rain 24hr
in
rain mn
in
humidity
%
barometer
mb
20190419183019 43 292 1.0 2.0 0.00 0.00 0.00 84 926.4
20190419182019 43 0.0 3.0 0.00 0.00 0.00 83 926.3
20190419181020 44 0.0 1.0 0.00 0.00 0.00 79 926.1
20190419180020 45 0.0 1.0 0.00 0.00 0.00 79 926.1
20190419175019 45 0.0 1.0 0.00 0.00 0.00 77 926.0
20190419174018 47 0.0 0.0 0.00 0.00 0.00 75 925.9
20190419173018 48 0.0 1.0 0.00 0.00 0.00 72 925.9
20190419172019 49 0.0 1.0 0.00 0.00 0.00 72 925.8
20190419171019 49 0.0 1.0 0.00 0.00 0.00 70 925.7
20190419170019 50 0.0 2.0 0.00 0.00 0.00 69 925.7
20190419165019 51 0.0 1.0 0.00 0.00 0.00 68 925.7
20190419164019 52 0.0 2.0 0.00 0.00 0.00 66 925.7
20190419163018 52 0 1.0 4.0 0.00 0.00 0.00 64 925.7
20190419162019 53 337 1.0 3.0 0.00 0.00 0.00 62 925.8
20190419161018 53 135 1.0 5.0 0.00 0.00 0.00 59 925.8
20190419160019 53 135 2.0 8.0 0.00 0.00 0.00 57 925.8
20190419155018 54 135 2.0 5.0 0.00 0.00 0.00 56 925.8
20190419154018 54 135 3.0 8.0 0.00 0.00 0.00 55 925.8
20190419153019 55 112 2.0 7.0 0.00 0.00 0.00 51 925.8
20190419152018 57 135 2.0 8.0 0.00 0.00 0.00 48 926.0
20190419151020 58 135 3.0 7.0 0.00 0.00 0.00 47 926.0
20190419150019 58 135 3.0 7.0 0.00 0.00 0.00 46 926.0
20190419145019 58 135 3.0 8.0 0.00 0.00 0.00 47 926.1
20190419144018 59 135 3.0 9.0 0.00 0.00 0.00 45 926.0
20190419143018 59 135 3.0 9.0 0.00 0.00 0.00 44 926.1
20190419142018 59 135 3.0 7.0 0.00 0.00 0.00 44 926.2
20190419141018 59 135 3.0 6.0 0.00 0.00 0.00 45 926.2
20190419140019 59 135 3.0 8.0 0.00 0.00 0.00 46 926.3
20190419135019 59 135 2.0 7.0 0.00 0.00 0.00 45 926.4
20190419134018 59 135 3.0 10.0 0.00 0.00 0.00 44 926.5
20190419133018 59 135 4.0 10.0 0.00 0.00 0.00 44 926.5
20190419132018 59 135 3.0 7.0 0.00 0.00 0.00 44 926.6
20190419131019 59 135 3.0 9.0 0.00 0.00 0.00 46 926.7
20190419130018 59 112 3.0 9.0 0.00 0.00 0.00 45 926.8
20190419125019 60 135 3.0 10.0 0.00 0.00 0.00 44 926.8
20190419124020 59 135 3.0 7.0 0.00 0.00 0.00 46 927.0
20190419123021 59 135 3.0 8.0 0.00 0.00 0.00 45 927.1
20190419122018 59 135 3.0 10.0 0.00 0.00 0.00 48 927.1
20190419121018 58 135 4.0 11.0 0.00 0.00 0.00 47 927.1
20190419120019 60 112 3.0 10.0 0.00 0.00 0.00 50 927.2
20190419115018 58 67 2.0 9.0 0.00 0.00 0.00 47 927.2
20190419114018 59 202 3.0 10.0 0.00 0.00 0.00 45 927.3
20190419113019 60 90 2.0 9.0 0.00 0.00 0.00 44 927.4
20190419112020 60 45 2.0 8.0 0.00 0.00 0.00 43 927.3
20190419111019 60 292 2.0 8.0 0.00 0.00 0.00 40 927.4
20190419110020 59 45 3.0 8.0 0.00 0.00 0.00 41 927.5
20190419105019 61 135 2.0 8.0 0.00 0.00 0.00 45 927.6
20190419104019 60 22 3.0 7.0 0.00 0.00 0.00 39 927.5
20190419103019 60 292 2.0 5.0 0.00 0.00 0.00 40 927.7
20190419102018 59 112 3.0 9.0 0.00 0.00 0.00 43 927.8
20190419101019 59 22 2.0 6.0 0.00 0.00 0.00 47 928.0
20190419100020 57 67 1.0 5.0 0.00 0.00 0.00 48 927.9
20190419095019 57 270 2.0 6.0 0.00 0.00 0.00 47 928.0
20190419094019 57 90 2.0 4.0 0.00 0.00 0.00 52 928.1
20190419093019 57 22 1.0 6.0 0.00 0.00 0.00 47 928.0
20190419092020 57 45 2.0 7.0 0.00 0.00 0.00 45 928.2
20190419091023 59 135 2.0 7.0 0.00 0.00 0.00 45 928.2
20190419090022 59 112 3.0 8.0 0.00 0.00 0.00 50 928.3
20190419085021 59 112 2.0 8.0 0.00 0.00 0.00 52 928.3
20190419084021 57 90 2.0 6.0 0.00 0.00 0.00 49 928.2
20190419083020 56 0 1.0 4.0 0.00 0.00 0.00 48 928.2
20190419082019 57 67 2.0 6.0 0.00 0.00 0.00 46 928.3
20190419081019 57 135 2.0 4.0 0.00 0.00 0.00 47 928.2
20190419080019 56 67 1.0 4.0 0.00 0.00 0.00 50 928.3
20190419075027 56 90 2.0 5.0 0.00 0.00 0.00 50 928.2
20190419074019 56 22 1.0 4.0 0.00 0.00 0.00 47 928.2
20190419073018 56 112 2.0 4.0 0.00 0.00 0.00 53 928.1
20190419072020 55 112 2.0 6.0 0.00 0.00 0.00 48 928.1
20190419071019 54 112 2.0 4.0 0.00 0.00 0.00 52 928.1
20190419070019 54 112 2.0 5.0 0.00 0.00 0.00 52 928.0
20190419065019 53 22 1.0 4.0 0.00 0.00 0.00 52 927.9
20190419064019 52 22 3.0 7.0 0.00 0.00 0.00 54 927.8
20190419063018 52 112 1.0 6.0 0.00 0.00 0.00 57 928.0
20190419062019 51 0.0 3.0 0.00 0.00 0.00 62 927.9
20190419061019 46 0.0 1.0 0.00 0.00 0.00 75 927.7
20190419060021 43 0.0 2.0 0.00 0.00 0.00 80 927.6
20190419055019 40 0.0 1.0 0.00 0.00 0.00 83 927.5
20190419054019 38 0.0 1.0 0.00 0.00 0.00 89 927.5
20190419053019 36 0.0 1.0 0.00 0.00 0.00 92 927.5
20190419052021 34 0.0 1.0 0.00 0.00 0.00 94 927.4
20190419051019 31 0.0 0.0 0.00 0.00 0.00 94 927.4
20190419050019 30 0.0 0.0 0.00 0.00 0.00 92 927.4
20190419045020 30 0.0 0.0 0.00 0.00 0.00 93 927.3
20190419044019 30 0.0 0.0 0.00 0.00 0.00 92 927.3
20190419043019 30 0.0 0.0 0.00 0.00 0.00 91 927.4
20190419042020 30 0.0 1.0 0.00 0.00 0.00 91 927.3
20190419041020 31 0.0 1.0 0.00 0.00 0.00 93 927.3
20190419040019 31 0.0 2.0 0.00 0.00 0.00 92 927.2
20190419035019 31 0.0 1.0 0.00 0.00 0.00 90 927.1
20190419034019 32 0.0 1.0 0.00 0.00 0.00 93 927.1
20190419033019 31 0.0 0.0 0.00 0.00 0.00 91 926.9
20190419032019 31 0.0 0.0 0.00 0.00 0.00 90 927.0
20190419031019 31 0.0 0.0 0.00 0.00 0.00 89 927.1
20190419030021 32 0.0 0.0 0.00 0.00 0.00 87 927.0
20190419025020 33 0.0 0.0 0.00 0.00 0.00 88 927.0
20190419024019 33 0.0 0.0 0.00 0.00 0.00 87 927.0
20190419023019 33 0.0 1.0 0.00 0.00 0.00 85 926.8
20190419022019 34 0.0 0.0 0.00 0.00 0.00 84 926.8
20190419021019 35 0.0 0.0 0.00 0.00 0.00 82 926.8
20190419020020 36 0.0 0.0 0.00 0.00 0.00 81 926.8
20190419015020 37 0.0 0.0 0.00 0.00 0.00 80 926.8
20190419014019 38 0.0 0.0 0.00 0.00 0.00 79 926.8
20190419013021 38 0.0 0.0 0.00 0.00 0.00 79 926.9
20190419012019 39 0.0 0.0 0.00 0.00 0.00 76 926.8
20190419011021 39 0.0 0.0 0.00 0.00 0.00 77 926.9
20190419010019 39 0.0 1.0 0.00 0.00 0.00 77 926.8
20190419005019 39 0.0 1.0 0.00 0.00 0.00 76 926.7
20190419004019 39 0.0 1.0 0.00 0.00 0.00 75 926.8
20190419003019 39 0.0 1.0 0.00 0.00 0.00 74 926.7
20190419002019 39 0.0 1.0 0.00 0.00 0.00 75 926.8
20190419001020 41 0.0 2.0 0.00 0.00 0.00 70 926.8
20190419000019 41 0.0 2.0 0.00 0.00 0.00 70 926.9
20190418235020 41 0.0 1.0 0.00 0.00 0.00 71 926.9
20190418234019 40 0.0 1.0 0.00 0.00 0.00 72 926.9
20190418233051 41 0.0 1.0 0.00 0.00 0.00 71 927.0
20190418232019 40 0.0 0.0 0.00 0.00 0.00 72 926.9
20190418231020 42 0.0 3.0 0.00 0.00 0.00 68 926.9
20190418230019 43 315 1.0 4.0 0.00 0.00 0.00 66 927.0
20190418225019 42 0.0 3.0 0.00 0.00 0.00 68 926.9
20190418224021 42 0.0 1.0 0.00 0.00 0.00 67 927.0
20190418223021 44 112 1.0 2.0 0.00 0.00 0.00 64 926.9
20190418222018 45 22 2.0 5.0 0.00 0.00 0.00 60 927.0
20190418221019 44 22 1.0 4.0 0.00 0.00 0.00 62 926.9
20190418220020 44 337 1.0 3.0 0.00 0.00 0.00 62 926.9
20190418215019 44 337 1.0 3.0 0.00 0.00 0.00 63 926.8
20190418214019 44 0.0 2.0 0.00 0.00 0.00 63 926.7
20190418213019 44 337 1.0 3.0 0.00 0.00 0.00 63 926.8
20190418212018 44 337 1.0 4.0 0.00 0.00 0.00 64 926.7
20190418211018 45 0.0 2.0 0.00 0.00 0.00 62 926.7
20190418210019 46 337 2.0 3.0 0.00 0.00 0.00 61 926.6
20190418205019 45 0 1.0 3.0 0.00 0.00 0.00 61 926.5
20190418204018 45 337 1.0 3.0 0.00 0.00 0.00 61 926.3
20190418203019 45 337 1.0 2.0 0.00 0.00 0.00 63 926.3
20190418202018 44 0.0 2.0 0.00 0.00 0.00 65 926.3
20190418201019 45 337 1.0 3.0 0.00 0.00 0.00 63 926.2
20190418200018 44 315 1.0 3.0 0.00 0.00 0.00 63 926.2
20190418195019 44 292 1.0 2.0 0.00 0.00 0.00 63 926.0
20190418194019 45 0.0 3.0 0.00 0.00 0.00 63 925.9
20190418193019 46 0 1.0 3.0 0.00 0.00 0.00 61 925.8
20190418192019 45 0.0 2.0 0.00 0.00 0.00 63 925.7
20190418191019 46 0 1.0 2.0 0.00 0.00 0.00 61 925.6
20190418190019 45 0.0 1.0 0.00 0.00 0.00 61 925.6
20190418185019 45 0.0 0.0 0.00 0.00 0.00 64 925.4
20190418184019 45 0.0 1.0 0.00 0.00 0.00 62 925.3